createdAt,value
2022-10-02T00:00:03.131Z,12.19
2022-10-02T00:00:34.887Z,12.19
2022-10-02T00:01:06.806Z,12.19
2022-10-02T00:01:35.122Z,12.19
2022-10-02T00:01:54.545Z,12.19
2022-10-02T00:02:27.678Z,12.01
2022-10-02T00:02:58.918Z,12.01
2022-10-02T00:03:31.816Z,12.12
2022-10-02T00:04:02.746Z,12.12
2022-10-02T00:04:35.701Z,12.12
2022-10-02T00:05:06.827Z,12.12
2022-10-02T00:05:35.071Z,12.12
2022-10-02T00:05:54.474Z,12.12
2022-10-02T00:06:26.786Z,12.12
2022-10-02T00:07:00.739Z,12.12
2022-10-02T00:07:30.818Z,12.12
2022-10-02T00:08:03.934Z,12.12
2022-10-02T00:08:35.104Z,12.12
2022-10-02T00:09:06.750Z,12.12
2022-10-02T00:09:35.256Z,12.12
2022-10-02T00:09:54.765Z,12.12
2022-10-02T00:10:27.710Z,12.12
2022-10-02T00:10:58.553Z,12.12
2022-10-02T00:11:30.600Z,12.12
2022-10-02T00:12:02.777Z,12.12
2022-10-02T00:12:34.909Z,12.12
2022-10-02T00:13:06.405Z,12.12
2022-10-02T00:13:34.690Z,12.12
2022-10-02T00:13:55.394Z,12.12
2022-10-02T00:14:26.515Z,12.12
2022-10-02T00:14:59.135Z,12.12
2022-10-02T00:15:30.517Z,12.12
2022-10-02T00:16:03.566Z,12.12
2022-10-02T00:16:35.181Z,12.12
2022-10-02T00:17:07.311Z,12.12
2022-10-02T00:17:34.770Z,12.12
2022-10-02T00:17:54.324Z,12.12
2022-10-02T00:18:26.363Z,12.12
2022-10-02T00:18:58.775Z,12.12
2022-10-02T00:19:30.562Z,12.12
2022-10-02T00:20:02.436Z,12.12
2022-10-02T00:20:34.432Z,12.12
2022-10-02T00:21:06.454Z,12.12
2022-10-02T00:21:34.707Z,12.12
2022-10-02T00:21:54.370Z,12.23
2022-10-02T00:22:27.164Z,12.23
2022-10-02T00:22:58.375Z,12.23
2022-10-02T00:23:31.422Z,12.23
2022-10-02T00:24:02.508Z,12.23
2022-10-02T00:24:37.315Z,12.23
2022-10-02T00:25:06.441Z,12.23
2022-10-02T00:25:34.774Z,12.23
2022-10-02T00:25:54.629Z,12.23
2022-10-02T00:26:26.524Z,12.23
2022-10-02T00:26:58.391Z,12.23
2022-10-02T00:27:30.330Z,12.23
2022-10-02T00:28:02.795Z,12.23
2022-10-02T00:28:35.054Z,12.23
2022-10-02T00:29:06.872Z,12.23
2022-10-02T00:29:35.214Z,12.23
2022-10-02T00:29:54.297Z,12.23
2022-10-02T00:30:27.715Z,12.23
2022-10-02T00:30:58.586Z,12.23
2022-10-02T00:31:31.974Z,12.40
2022-10-02T00:32:02.947Z,12.40
2022-10-02T00:32:35.637Z,12.40
2022-10-02T00:33:06.659Z,12.40
2022-10-02T00:33:35.009Z,12.40
2022-10-02T00:34:15.022Z,12.40
2022-10-02T00:34:35.085Z,12.40
2022-10-02T00:34:59.723Z,12.40
2022-10-02T00:35:30.850Z,12.40
2022-10-02T00:36:19.769Z,12.40
2022-10-02T00:36:51.120Z,12.40
2022-10-02T00:37:24.711Z,12.40
2022-10-02T00:37:42.271Z,12.40
2022-10-02T00:38:10.788Z,12.40
2022-10-02T00:38:35.219Z,12.40
2022-10-02T00:38:58.941Z,12.40
2022-10-02T00:39:30.637Z,12.40
2022-10-02T00:40:03.055Z,12.40
2022-10-02T00:40:34.686Z,12.30
2022-10-02T00:41:06.588Z,12.30
2022-10-02T00:41:35.053Z,12.30
2022-10-02T00:41:54.338Z,12.30
2022-10-02T00:42:27.421Z,12.30
2022-10-02T00:42:58.635Z,12.30
2022-10-02T00:43:30.718Z,12.30
2022-10-02T00:44:02.545Z,12.30
2022-10-02T00:44:34.405Z,12.30
2022-10-02T00:45:06.842Z,12.30
2022-10-02T00:45:35.010Z,12.30
2022-10-02T00:45:56.026Z,12.30
2022-10-02T00:46:26.298Z,12.12
2022-10-02T00:46:58.377Z,12.23
2022-10-02T00:47:30.531Z,12.23
2022-10-02T00:48:02.756Z,12.23
2022-10-02T00:48:34.885Z,12.23
2022-10-02T00:49:06.619Z,12.23
2022-10-02T00:49:35.014Z,12.23
2022-10-02T00:49:54.464Z,12.23
2022-10-02T00:50:28.023Z,12.23
2022-10-02T00:50:58.878Z,12.23
2022-10-02T00:51:30.932Z,12.23
2022-10-02T00:52:02.398Z,12.23
2022-10-02T00:52:34.647Z,12.23
2022-10-02T00:53:06.605Z,12.23
2022-10-02T00:53:35.183Z,12.23
2022-10-02T00:53:55.919Z,12.23
2022-10-02T00:54:26.718Z,12.23
2022-10-02T00:54:58.501Z,12.40
2022-10-02T00:55:30.913Z,12.23
2022-10-02T00:56:02.698Z,12.40
2022-10-02T00:56:34.811Z,12.40
2022-10-02T00:57:06.511Z,12.40
2022-10-02T00:57:35.234Z,12.40
2022-10-02T00:57:54.636Z,12.30
2022-10-02T00:58:27.794Z,12.30
2022-10-02T00:58:58.775Z,12.30
2022-10-02T00:59:31.508Z,12.30
2022-10-02T01:00:03.893Z,12.30
2022-10-02T01:00:35.271Z,12.30
2022-10-02T01:01:06.437Z,12.30
2022-10-02T01:01:34.835Z,12.30
2022-10-02T01:01:54.762Z,12.30
2022-10-02T01:02:26.554Z,12.12
2022-10-02T01:02:59.154Z,12.12
2022-10-02T01:03:30.903Z,12.23
2022-10-02T01:04:02.302Z,12.23
2022-10-02T01:04:34.525Z,12.23
2022-10-02T01:05:06.591Z,12.23
2022-10-02T01:05:34.770Z,12.23
2022-10-02T01:05:54.422Z,12.23
2022-10-02T01:06:26.338Z,12.23
2022-10-02T01:06:58.531Z,12.23
2022-10-02T01:07:30.515Z,12.23
2022-10-02T01:08:02.328Z,12.23
2022-10-02T01:08:34.373Z,12.23
2022-10-02T01:09:06.322Z,12.23
2022-10-02T01:09:37.440Z,12.23
2022-10-02T01:10:11.297Z,12.23
2022-10-02T01:10:34.690Z,12.23
2022-10-02T01:10:58.460Z,12.23
2022-10-02T01:11:31.301Z,12.23
2022-10-02T01:12:02.636Z,12.12
2022-10-02T01:12:36.197Z,12.12
2022-10-02T01:13:06.368Z,12.12
2022-10-02T01:13:34.805Z,12.12
2022-10-02T01:13:54.385Z,12.12
2022-10-02T01:14:26.424Z,12.12
2022-10-02T01:14:58.537Z,12.23
2022-10-02T01:15:30.612Z,12.23
2022-10-02T01:16:02.389Z,12.23
2022-10-02T01:16:34.551Z,12.23
2022-10-02T01:17:06.532Z,12.23
2022-10-02T01:17:35.135Z,12.23
2022-10-02T01:17:54.485Z,12.23
2022-10-02T01:18:27.371Z,12.23
2022-10-02T01:18:58.576Z,12.23
2022-10-02T01:19:31.318Z,12.23
2022-10-02T01:20:02.596Z,12.23
2022-10-02T01:20:35.108Z,12.23
2022-10-02T01:21:07.378Z,12.23
2022-10-02T01:21:34.818Z,12.12
2022-10-02T01:21:55.355Z,12.30
2022-10-02T01:22:26.542Z,12.12
2022-10-02T01:23:00.112Z,12.12
2022-10-02T01:23:30.897Z,12.12
2022-10-02T01:24:03.440Z,12.23
2022-10-02T01:24:34.579Z,12.23
2022-10-02T01:25:07.535Z,12.23
2022-10-02T01:25:34.732Z,12.23
2022-10-02T01:25:54.398Z,12.23
2022-10-02T01:26:26.375Z,12.23
2022-10-02T01:26:58.566Z,12.23
2022-10-02T01:27:30.457Z,12.28
2022-10-02T01:28:02.303Z,12.28
2022-10-02T01:28:34.398Z,12.28
2022-10-02T01:29:06.450Z,12.28
2022-10-02T01:29:54.474Z,12.28
2022-10-02T01:30:27.258Z,12.28
2022-10-02T01:30:58.417Z,12.28
2022-10-02T01:31:31.457Z,12.28
2022-10-02T01:32:02.532Z,12.23
2022-10-02T01:32:35.809Z,12.23
2022-10-02T01:33:06.397Z,12.23
2022-10-02T01:33:34.795Z,12.23
2022-10-02T01:33:54.471Z,12.23
2022-10-02T01:34:26.471Z,12.23
2022-10-02T01:34:59.200Z,12.23
2022-10-02T01:35:30.693Z,12.23
2022-10-02T01:36:03.478Z,12.23
2022-10-02T01:36:34.908Z,12.28
2022-10-02T01:37:07.330Z,12.28
2022-10-02T01:37:34.777Z,12.28
2022-10-02T01:37:54.332Z,12.28
2022-10-02T01:38:26.350Z,12.28
2022-10-02T01:38:58.769Z,12.28
2022-10-02T01:39:30.448Z,12.28
2022-10-02T01:40:02.427Z,12.28
2022-10-02T01:40:34.644Z,12.28
2022-10-02T01:41:06.612Z,12.23
2022-10-02T01:41:34.854Z,12.23
2022-10-02T01:41:54.670Z,12.23
2022-10-02T01:42:27.910Z,12.23
2022-10-02T01:42:58.435Z,12.23
2022-10-02T01:43:31.608Z,12.23
2022-10-02T01:44:02.745Z,12.23
2022-10-02T01:44:35.947Z,12.23
2022-10-02T01:45:06.621Z,12.23
2022-10-02T01:45:35.293Z,12.23
2022-10-02T01:45:54.915Z,12.23
2022-10-02T01:46:35.493Z,12.23
2022-10-02T01:46:59.585Z,12.23
2022-10-02T01:47:30.576Z,12.23
2022-10-02T01:48:03.468Z,12.23
2022-10-02T01:48:34.679Z,12.23
2022-10-02T01:49:07.983Z,12.23
2022-10-02T01:49:34.967Z,12.23
2022-10-02T01:49:54.738Z,12.23
2022-10-02T01:50:26.774Z,12.23
2022-10-02T01:50:58.693Z,12.23
2022-10-02T01:51:30.282Z,12.23
2022-10-02T01:52:02.908Z,12.23
2022-10-02T01:52:34.687Z,12.23
2022-10-02T01:53:06.689Z,12.40
2022-10-02T01:53:35.020Z,12.23
2022-10-02T01:53:54.315Z,12.40
2022-10-02T01:54:27.492Z,12.30
2022-10-02T01:54:58.487Z,12.30
2022-10-02T01:55:30.793Z,12.30
2022-10-02T01:56:02.487Z,12.30
2022-10-02T01:56:34.849Z,12.30
2022-10-02T01:57:06.256Z,12.40
2022-10-02T01:57:34.939Z,12.40
2022-10-02T01:57:55.297Z,12.40
2022-10-02T01:58:26.316Z,12.40
2022-10-02T01:58:58.833Z,12.40
2022-10-02T01:59:30.290Z,12.40
2022-10-02T02:00:02.705Z,12.40
2022-10-02T02:00:34.524Z,12.40
2022-10-02T02:01:06.403Z,12.40
2022-10-02T02:01:34.947Z,12.40
2022-10-02T02:01:54.433Z,12.30
2022-10-02T02:02:27.771Z,12.30
2022-10-02T02:02:58.820Z,12.30
2022-10-02T02:03:30.789Z,12.23
2022-10-02T02:04:02.318Z,12.23
2022-10-02T02:04:35.488Z,12.23
2022-10-02T02:05:06.691Z,12.40
2022-10-02T02:05:35.191Z,12.23
2022-10-02T02:05:56.228Z,12.40
2022-10-02T02:06:26.637Z,12.40
2022-10-02T02:06:59.414Z,12.30
2022-10-02T02:07:30.558Z,12.30
2022-10-02T02:08:02.290Z,12.30
2022-10-02T02:08:34.316Z,12.30
2022-10-02T02:09:06.407Z,12.30
2022-10-02T02:09:35.086Z,12.30
2022-10-02T02:09:54.441Z,12.30
2022-10-02T02:10:28.109Z,12.30
2022-10-02T02:10:58.553Z,12.30
2022-10-02T02:11:31.264Z,12.30
2022-10-02T02:12:02.421Z,12.30
2022-10-02T02:12:35.426Z,12.30
2022-10-02T02:13:06.315Z,12.30
2022-10-02T02:13:34.867Z,12.30
2022-10-02T02:13:54.275Z,12.30
2022-10-02T02:14:26.490Z,12.30
2022-10-02T02:14:59.055Z,12.30
2022-10-02T02:15:31.416Z,12.30
2022-10-02T02:16:03.241Z,12.30
2022-10-02T02:16:34.729Z,12.30
2022-10-02T02:17:06.425Z,12.30
2022-10-02T02:17:34.706Z,12.30
2022-10-02T02:17:54.419Z,12.30
2022-10-02T02:18:27.213Z,12.30
2022-10-02T02:18:58.656Z,12.30
2022-10-02T02:19:31.673Z,12.30
2022-10-02T02:20:02.829Z,12.30
2022-10-02T02:20:34.552Z,12.12
2022-10-02T02:21:06.606Z,12.12
2022-10-02T02:21:35.129Z,12.12
2022-10-02T02:21:55.841Z,12.12
2022-10-02T02:22:26.493Z,12.30
2022-10-02T02:22:59.661Z,12.30
2022-10-02T02:23:30.559Z,12.30
2022-10-02T02:24:02.477Z,12.30
2022-10-02T02:24:34.801Z,12.12
2022-10-02T02:25:06.909Z,12.30
2022-10-02T02:25:34.966Z,12.30
2022-10-02T02:25:54.352Z,12.30
2022-10-02T02:26:27.567Z,12.12
2022-10-02T02:26:58.635Z,12.23
2022-10-02T02:27:31.246Z,12.23
2022-10-02T02:28:02.885Z,12.23
2022-10-02T02:28:34.712Z,12.23
2022-10-02T02:29:06.683Z,12.23
2022-10-02T02:29:34.828Z,12.23
2022-10-02T02:29:55.469Z,12.23
2022-10-02T02:30:26.681Z,12.23
2022-10-02T02:30:59.696Z,12.23
2022-10-02T02:31:30.752Z,12.23
2022-10-02T02:32:02.777Z,12.23
2022-10-02T02:32:35.024Z,12.40
2022-10-02T02:33:06.566Z,12.23
2022-10-02T02:33:35.150Z,12.23
2022-10-02T02:33:54.514Z,12.23
2022-10-02T02:34:27.834Z,12.23
2022-10-02T02:34:58.842Z,12.23
2022-10-02T02:35:30.711Z,12.23
2022-10-02T02:36:02.644Z,12.23
2022-10-02T02:36:34.876Z,12.23
2022-10-02T02:37:07.031Z,12.23
2022-10-02T02:37:36.192Z,12.23
2022-10-02T02:37:55.239Z,12.23
2022-10-02T02:38:26.433Z,12.23
2022-10-02T02:38:59.256Z,12.40
2022-10-02T02:39:30.233Z,12.40
2022-10-02T02:40:02.486Z,12.40
2022-10-02T02:40:34.489Z,12.40
2022-10-02T02:41:06.452Z,12.40
2022-10-02T02:41:34.968Z,12.40
2022-10-02T02:41:54.245Z,12.40
2022-10-02T02:42:27.478Z,12.40
2022-10-02T02:42:58.566Z,12.40
2022-10-02T02:43:30.841Z,12.40
2022-10-02T02:44:02.925Z,12.40
2022-10-02T02:44:34.888Z,12.40
2022-10-02T02:45:06.892Z,12.40
2022-10-02T02:45:35.091Z,12.40
2022-10-02T02:45:55.800Z,12.30
2022-10-02T02:46:26.601Z,12.30
2022-10-02T02:46:59.361Z,12.30
2022-10-02T02:47:30.656Z,12.30
2022-10-02T02:48:03.658Z,12.47
2022-10-02T02:48:34.760Z,12.47
2022-10-02T02:49:07.264Z,12.47
2022-10-02T02:49:35.149Z,12.47
2022-10-02T02:49:54.565Z,12.47
2022-10-02T02:50:26.920Z,12.47
2022-10-02T02:51:15.583Z,12.47
2022-10-02T02:51:34.790Z,12.47
2022-10-02T02:52:02.351Z,12.36
2022-10-02T02:52:34.671Z,12.36
2022-10-02T02:53:06.633Z,12.36
2022-10-02T02:53:35.140Z,12.36
2022-10-02T02:53:54.868Z,12.36
2022-10-02T02:54:26.651Z,12.36
2022-10-02T02:54:58.557Z,12.36
2022-10-02T02:55:30.575Z,12.36
2022-10-02T02:56:02.321Z,12.54
2022-10-02T02:56:35.169Z,12.54
2022-10-02T02:57:11.741Z,12.54
2022-10-02T02:57:34.691Z,12.54
2022-10-02T02:57:55.334Z,12.54
2022-10-02T02:58:26.339Z,12.42
2022-10-02T02:58:58.808Z,12.42
2022-10-02T02:59:30.459Z,12.42
2022-10-02T03:00:03.007Z,12.42
2022-10-02T03:00:34.938Z,12.42
2022-10-02T03:01:06.866Z,12.42
2022-10-02T03:01:35.174Z,12.42
2022-10-02T03:01:54.462Z,12.42
2022-10-02T03:02:27.734Z,12.42
2022-10-02T03:02:58.313Z,12.42
2022-10-02T03:03:35.202Z,12.42
2022-10-02T03:04:19.682Z,12.59
2022-10-02T03:04:50.680Z,12.48
2022-10-02T03:05:23.792Z,12.48
2022-10-02T03:05:54.540Z,12.48
2022-10-02T03:06:27.715Z,12.48
2022-10-02T03:06:58.445Z,12.43
2022-10-02T03:07:30.732Z,12.60
2022-10-02T03:08:18.292Z,12.60
2022-10-02T03:08:51.419Z,12.60
2022-10-02T03:09:22.480Z,12.60
2022-10-02T03:09:40.344Z,12.60
2022-10-02T03:10:11.740Z,12.49
2022-10-02T03:10:34.717Z,12.49
2022-10-02T03:10:59.186Z,12.49
2022-10-02T03:11:31.637Z,12.49
2022-10-02T03:12:02.552Z,12.49
2022-10-02T03:12:36.207Z,12.49
2022-10-02T03:13:06.368Z,12.49
2022-10-02T03:13:35.203Z,12.49
2022-10-02T03:13:55.328Z,12.49
2022-10-02T03:14:26.494Z,12.38
2022-10-02T03:14:59.188Z,12.38
2022-10-02T03:15:30.539Z,12.55
2022-10-02T03:16:03.483Z,12.55
2022-10-02T03:16:35.014Z,12.55
2022-10-02T03:17:07.985Z,12.55
2022-10-02T03:17:34.985Z,12.55
2022-10-02T03:17:54.611Z,12.55
2022-10-02T03:18:26.614Z,12.55
2022-10-02T03:18:58.898Z,12.55
2022-10-02T03:19:30.666Z,12.55
2022-10-02T03:20:02.531Z,12.55
2022-10-02T03:20:34.478Z,12.55
2022-10-02T03:21:06.453Z,12.55
2022-10-02T03:21:35.274Z,12.55
2022-10-02T03:21:54.668Z,12.55
2022-10-02T03:22:27.407Z,12.43
2022-10-02T03:22:58.449Z,12.43
2022-10-02T03:23:30.538Z,12.43
2022-10-02T03:24:02.449Z,12.43
2022-10-02T03:24:34.317Z,12.43
2022-10-02T03:25:06.664Z,12.43
2022-10-02T03:25:35.281Z,12.43
2022-10-02T03:25:55.679Z,12.43
2022-10-02T03:26:35.134Z,12.43
2022-10-02T03:26:59.295Z,12.43
2022-10-02T03:27:34.722Z,12.43
2022-10-02T03:28:02.562Z,12.43
2022-10-02T03:28:54.406Z,12.43
2022-10-02T03:29:06.376Z,12.43
2022-10-02T03:29:34.987Z,12.43
2022-10-02T03:29:54.368Z,12.43
2022-10-02T03:30:27.818Z,12.43
2022-10-02T03:30:58.425Z,12.32
2022-10-02T03:31:30.319Z,12.32
2022-10-02T03:32:03.342Z,12.32
2022-10-02T03:32:34.597Z,12.32
2022-10-02T03:33:06.797Z,12.32
2022-10-02T03:33:34.769Z,12.32
2022-10-02T03:33:54.303Z,12.32
2022-10-02T03:34:27.340Z,12.32
2022-10-02T03:34:58.599Z,12.32
2022-10-02T03:35:30.557Z,12.32
2022-10-02T03:36:02.356Z,12.32
2022-10-02T03:36:34.783Z,12.32
2022-10-02T03:37:06.402Z,12.32
2022-10-02T03:37:34.734Z,12.32
2022-10-02T03:37:55.665Z,12.32
2022-10-02T03:38:26.505Z,12.32
2022-10-02T03:39:23.108Z,12.32
2022-10-02T03:39:30.513Z,12.32
2022-10-02T03:40:02.906Z,12.32
2022-10-02T03:40:34.785Z,12.32
2022-10-02T03:41:06.482Z,12.32
2022-10-02T03:41:37.380Z,12.50
2022-10-02T03:42:10.413Z,12.50
2022-10-02T03:42:34.671Z,12.50
2022-10-02T03:42:58.329Z,12.50
2022-10-02T03:43:30.236Z,12.50
2022-10-02T03:44:03.421Z,12.50
2022-10-02T03:44:34.695Z,12.50
2022-10-02T03:45:07.215Z,12.45
2022-10-02T03:45:54.735Z,12.45
2022-10-02T03:46:27.706Z,12.45
2022-10-02T03:46:58.588Z,12.45
2022-10-02T03:47:30.590Z,12.45
2022-10-02T03:48:02.477Z,12.45
2022-10-02T03:48:34.751Z,12.45
2022-10-02T03:49:06.633Z,12.45
2022-10-02T03:49:34.777Z,12.45
2022-10-02T03:49:55.687Z,12.45
2022-10-02T03:50:26.788Z,12.45
2022-10-02T03:50:58.470Z,12.45
2022-10-02T03:51:30.669Z,12.45
2022-10-02T03:52:02.387Z,12.45
2022-10-02T03:52:34.286Z,12.45
2022-10-02T03:53:06.274Z,12.45
2022-10-02T03:53:34.878Z,12.45
2022-10-02T03:53:54.403Z,12.45
2022-10-02T03:54:27.239Z,12.45
2022-10-02T03:54:58.293Z,12.45
2022-10-02T03:55:31.315Z,12.45
2022-10-02T03:56:02.418Z,12.45
2022-10-02T03:56:35.966Z,12.45
2022-10-02T03:57:06.885Z,12.45
2022-10-02T03:57:35.573Z,12.45
2022-10-02T03:57:55.240Z,12.45
2022-10-02T03:58:26.383Z,12.45
2022-10-02T03:58:42.772Z,12.45
2022-10-02T03:59:14.381Z,12.45
2022-10-02T03:59:34.937Z,12.45
2022-10-02T04:00:08.599Z,12.50
2022-10-02T04:00:34.402Z,12.32
2022-10-02T04:01:06.402Z,12.32
2022-10-02T04:01:35.340Z,12.32
2022-10-02T04:01:54.738Z,12.32
2022-10-02T04:02:27.551Z,12.32
2022-10-02T04:02:58.504Z,12.32
2022-10-02T04:03:32.406Z,12.32
2022-10-02T04:04:02.631Z,12.32
2022-10-02T04:04:36.268Z,12.32
2022-10-02T04:05:06.401Z,12.32
2022-10-02T04:05:34.792Z,12.32
2022-10-02T04:05:54.502Z,12.32
2022-10-02T04:06:26.720Z,12.43
2022-10-02T04:06:59.407Z,12.43
2022-10-02T04:07:30.411Z,12.43
2022-10-02T04:08:02.500Z,12.43
2022-10-02T04:08:34.708Z,12.43
2022-10-02T04:09:06.835Z,12.32
2022-10-02T04:09:35.202Z,12.32
2022-10-02T04:09:54.564Z,12.32
2022-10-02T04:10:29.153Z,12.32
2022-10-02T04:10:58.802Z,12.32
2022-10-02T04:11:30.261Z,12.32
2022-10-02T04:12:03.555Z,12.32
2022-10-02T04:12:34.577Z,12.32
2022-10-02T04:13:07.757Z,12.32
2022-10-02T04:13:35.199Z,12.32
2022-10-02T04:13:55.311Z,12.32
2022-10-02T04:14:27.828Z,12.32
2022-10-02T04:14:58.613Z,12.32
2022-10-02T04:15:32.015Z,12.32
2022-10-02T04:16:02.748Z,12.32
2022-10-02T04:16:35.823Z,12.32
2022-10-02T04:17:06.490Z,12.32
2022-10-02T04:17:35.187Z,12.32
2022-10-02T04:18:10.710Z,12.32
2022-10-02T04:18:34.710Z,12.32
2022-10-02T04:18:59.559Z,12.32
2022-10-02T04:19:30.537Z,12.32
2022-10-02T04:20:02.716Z,12.32
2022-10-02T04:20:34.914Z,12.32
2022-10-02T04:21:06.966Z,12.32
2022-10-02T04:21:35.082Z,12.32
2022-10-02T04:21:54.693Z,12.32
2022-10-02T04:22:27.682Z,12.32
2022-10-02T04:22:58.717Z,12.32
2022-10-02T04:23:31.398Z,12.32
2022-10-02T04:24:02.292Z,12.32
2022-10-02T04:24:34.379Z,12.32
2022-10-02T04:25:06.522Z,12.32
2022-10-02T04:25:35.400Z,12.32
2022-10-02T04:25:55.991Z,12.32
2022-10-02T04:26:26.281Z,12.32
2022-10-02T04:26:43.205Z,12.32
2022-10-02T04:27:15.487Z,12.32
2022-10-02T04:27:34.936Z,12.32
2022-10-02T04:28:02.856Z,12.32
2022-10-02T04:28:34.331Z,12.50
2022-10-02T04:29:06.386Z,12.32
2022-10-02T04:29:35.304Z,12.50
2022-10-02T04:29:54.345Z,12.50
2022-10-02T04:30:27.863Z,12.50
2022-10-02T04:30:58.778Z,12.50
2022-10-02T04:31:30.705Z,12.50
2022-10-02T04:32:02.837Z,12.50
2022-10-02T04:32:34.791Z,12.50
2022-10-02T04:33:06.504Z,12.50
2022-10-02T04:33:38.356Z,12.50
2022-10-02T04:33:55.701Z,12.50
2022-10-02T04:34:26.644Z,12.50
2022-10-02T04:34:58.519Z,12.50
2022-10-02T04:35:30.445Z,12.45
2022-10-02T04:36:02.254Z,12.45
2022-10-02T04:36:34.890Z,12.45
2022-10-02T04:37:06.688Z,12.45
2022-10-02T04:37:34.825Z,12.45
2022-10-02T04:37:55.086Z,12.45
2022-10-02T04:38:27.399Z,12.45
2022-10-02T04:38:58.723Z,12.45
2022-10-02T04:39:31.172Z,12.45
2022-10-02T04:40:02.808Z,12.45
2022-10-02T04:40:36.090Z,12.45
2022-10-02T04:41:06.486Z,12.45
2022-10-02T04:41:35.211Z,12.45
2022-10-02T04:41:54.356Z,12.45
2022-10-02T04:42:26.679Z,12.45
2022-10-02T04:43:15.162Z,12.45
2022-10-02T04:43:34.774Z,12.45
2022-10-02T04:44:02.510Z,12.45
2022-10-02T04:44:34.833Z,12.45
2022-10-02T04:45:06.835Z,12.45
2022-10-02T04:45:35.173Z,12.45
2022-10-02T04:45:54.571Z,12.45
2022-10-02T04:46:29.684Z,12.45
2022-10-02T04:46:58.184Z,12.45
2022-10-02T04:47:31.203Z,12.45
2022-10-02T04:48:02.615Z,12.45
2022-10-02T04:48:34.537Z,12.45
2022-10-02T04:49:06.640Z,12.45
2022-10-02T04:49:34.996Z,12.45
2022-10-02T04:49:55.169Z,12.45
2022-10-02T04:50:26.764Z,12.45
2022-10-02T04:51:02.031Z,12.45
2022-10-02T04:51:30.346Z,12.45
2022-10-02T04:52:02.351Z,12.34
2022-10-02T04:52:35.456Z,12.34
2022-10-02T04:53:06.576Z,12.34
2022-10-02T04:53:35.076Z,12.34
2022-10-02T04:54:10.419Z,12.34
2022-10-02T04:54:35.349Z,12.34
2022-10-02T04:54:59.268Z,12.34
2022-10-02T04:55:30.489Z,12.34
2022-10-02T04:56:03.005Z,12.34
2022-10-02T04:56:35.018Z,12.34
2022-10-02T04:57:06.484Z,12.34
2022-10-02T04:57:35.118Z,12.34
2022-10-02T04:57:54.554Z,12.34
2022-10-02T04:58:27.089Z,12.34
2022-10-02T04:58:58.834Z,12.34
2022-10-02T04:59:30.402Z,12.45
2022-10-02T05:00:02.767Z,12.34
2022-10-02T05:00:34.445Z,12.45
2022-10-02T05:01:06.584Z,12.34
2022-10-02T05:01:34.817Z,12.34
2022-10-02T05:01:55.260Z,12.34
2022-10-02T05:02:26.623Z,12.34
2022-10-02T05:02:59.656Z,12.34
2022-10-02T05:03:30.418Z,12.34
2022-10-02T05:04:04.430Z,12.34
2022-10-02T05:04:34.262Z,12.34
2022-10-02T05:05:07.442Z,12.34
2022-10-02T05:05:35.202Z,12.34
2022-10-02T05:05:54.403Z,12.34
2022-10-02T05:06:26.345Z,12.34
2022-10-02T05:06:43.029Z,12.34
2022-10-02T05:07:15.402Z,12.34
2022-10-02T05:07:34.811Z,12.34
2022-10-02T05:08:02.752Z,12.34
2022-10-02T05:08:34.629Z,12.34
2022-10-02T05:09:06.248Z,12.34
2022-10-02T05:09:34.932Z,12.34
2022-10-02T05:09:54.378Z,12.34
2022-10-02T05:10:28.063Z,12.34
2022-10-02T05:10:58.740Z,12.50
2022-10-02T05:11:31.831Z,12.50
2022-10-02T05:12:02.469Z,12.50
2022-10-02T05:12:36.728Z,12.50
2022-10-02T05:13:06.767Z,12.50
2022-10-02T05:13:34.975Z,12.50
2022-10-02T05:13:54.206Z,12.50
2022-10-02T05:14:26.513Z,12.39
2022-10-02T05:14:58.473Z,12.39
2022-10-02T05:15:30.553Z,12.39
2022-10-02T05:16:02.456Z,12.39
2022-10-02T05:16:34.803Z,12.39
2022-10-02T05:17:06.466Z,12.39
2022-10-02T05:17:35.319Z,12.39
2022-10-02T05:17:54.253Z,12.39
2022-10-02T05:18:27.455Z,12.39
2022-10-02T05:18:58.767Z,12.39
2022-10-02T05:19:30.659Z,12.39
2022-10-02T05:20:02.863Z,12.39
2022-10-02T05:20:34.773Z,12.39
2022-10-02T05:21:07.320Z,12.39
2022-10-02T05:21:35.201Z,12.39
2022-10-02T05:21:55.546Z,12.39
2022-10-02T05:22:26.428Z,12.39
2022-10-02T05:22:45.917Z,12.39
2022-10-02T05:23:15.565Z,12.39
2022-10-02T05:23:34.781Z,12.39
2022-10-02T05:24:02.389Z,12.39
2022-10-02T05:24:34.448Z,12.39
2022-10-02T05:25:06.393Z,12.39
2022-10-02T05:25:35.220Z,12.27
2022-10-02T05:25:54.741Z,12.27
2022-10-02T05:26:27.669Z,12.27
2022-10-02T05:26:58.621Z,12.27
2022-10-02T05:27:30.650Z,12.27
2022-10-02T05:28:02.550Z,12.27
2022-10-02T05:28:34.614Z,12.27
2022-10-02T05:29:06.637Z,12.27
2022-10-02T05:29:34.767Z,12.27
2022-10-02T05:29:55.136Z,12.27
2022-10-02T05:30:26.841Z,12.27
2022-10-02T05:30:59.376Z,12.27
2022-10-02T05:31:30.466Z,12.27
2022-10-02T05:32:03.033Z,12.27
2022-10-02T05:32:34.274Z,12.27
2022-10-02T05:33:07.339Z,12.27
2022-10-02T05:33:34.975Z,12.27
2022-10-02T05:34:11.632Z,12.27
2022-10-02T05:34:34.753Z,12.43
2022-10-02T05:34:58.280Z,12.43
2022-10-02T05:35:36.044Z,12.43
2022-10-02T05:36:02.996Z,12.43
2022-10-02T05:36:35.856Z,12.43
2022-10-02T05:37:07.537Z,12.43
2022-10-02T05:37:35.196Z,12.43
2022-10-02T05:37:54.290Z,12.43
2022-10-02T05:38:26.642Z,12.43
2022-10-02T05:38:58.961Z,12.43
2022-10-02T05:39:30.616Z,12.43
2022-10-02T05:40:02.535Z,12.32
2022-10-02T05:40:34.585Z,12.32
2022-10-02T05:41:06.369Z,12.32
2022-10-02T05:41:35.150Z,12.32
2022-10-02T05:41:54.289Z,12.16
2022-10-02T05:42:27.504Z,12.16
2022-10-02T05:42:58.502Z,12.11
2022-10-02T05:43:30.751Z,12.11
2022-10-02T05:44:02.704Z,12.11
2022-10-02T05:44:34.522Z,12.11
2022-10-02T05:45:06.879Z,12.11
2022-10-02T05:45:35.094Z,12.00
2022-10-02T05:45:55.199Z,12.00
2022-10-02T05:46:26.238Z,12.00
2022-10-02T05:46:43.113Z,12.00
2022-10-02T05:47:14.514Z,12.00
2022-10-02T05:47:35.130Z,12.00
2022-10-02T05:48:02.877Z,12.00
2022-10-02T05:48:35.071Z,12.00
2022-10-02T05:49:06.757Z,12.00
2022-10-02T05:49:35.012Z,12.00
2022-10-02T05:49:54.366Z,12.00
2022-10-02T05:50:27.572Z,12.00
2022-10-02T05:50:58.664Z,12.00
2022-10-02T05:51:31.674Z,12.00
2022-10-02T05:52:02.547Z,12.00
2022-10-02T05:52:35.490Z,12.00
2022-10-02T05:53:06.355Z,12.00
2022-10-02T05:53:35.961Z,12.00
2022-10-02T05:54:10.476Z,12.00
2022-10-02T05:54:35.200Z,12.00
2022-10-02T05:55:14.783Z,12.00
2022-10-02T05:55:35.415Z,12.00
2022-10-02T05:56:03.593Z,12.00
2022-10-02T05:56:35.469Z,12.00
2022-10-02T05:57:06.460Z,11.89
2022-10-02T05:57:34.867Z,11.74
2022-10-02T05:57:54.265Z,11.74
2022-10-02T05:58:27.317Z,11.74
2022-10-02T05:58:58.986Z,11.74
2022-10-02T05:59:30.516Z,11.74
2022-10-02T06:00:02.820Z,11.62
2022-10-02T06:00:34.400Z,11.62
2022-10-02T06:01:07.965Z,11.62
2022-10-02T06:01:34.940Z,11.62
2022-10-02T06:01:54.624Z,11.62
2022-10-02T06:02:27.395Z,11.62
2022-10-02T06:02:58.285Z,11.44
2022-10-02T06:03:30.433Z,11.44
2022-10-02T06:04:02.469Z,11.44
2022-10-02T06:04:34.889Z,11.44
2022-10-02T06:05:06.909Z,11.44
2022-10-02T06:05:35.263Z,11.44
2022-10-02T06:05:55.581Z,11.44
2022-10-02T06:06:26.635Z,11.44
2022-10-02T06:06:59.369Z,11.44
2022-10-02T06:07:30.584Z,11.44
2022-10-02T06:08:02.583Z,11.44
2022-10-02T06:08:34.727Z,11.44
2022-10-02T06:09:06.693Z,11.34
2022-10-02T06:09:35.208Z,11.34
2022-10-02T06:09:54.314Z,11.34
2022-10-02T06:10:27.847Z,11.34
2022-10-02T06:10:58.381Z,11.34
2022-10-02T06:11:31.042Z,11.34
2022-10-02T06:12:02.307Z,11.34
2022-10-02T06:12:38.435Z,11.34
2022-10-02T06:13:06.460Z,11.34
2022-10-02T06:13:34.902Z,11.34
2022-10-02T06:13:54.718Z,11.16
2022-10-02T06:14:26.574Z,11.16
2022-10-02T06:14:58.605Z,11.16
2022-10-02T06:15:30.942Z,11.16
2022-10-02T06:16:02.362Z,11.16
2022-10-02T06:16:35.591Z,11.16
2022-10-02T06:17:06.425Z,11.16
2022-10-02T06:17:34.877Z,11.16
2022-10-02T06:17:55.007Z,11.16
2022-10-02T06:18:26.238Z,11.16
2022-10-02T06:18:42.987Z,11.16
2022-10-02T06:19:14.435Z,11.16
2022-10-02T06:19:34.978Z,11.16
2022-10-02T06:20:04.275Z,11.00
2022-10-02T06:20:35.073Z,11.16
2022-10-02T06:21:06.705Z,11.00
2022-10-02T06:21:36.070Z,11.00
2022-10-02T06:21:54.683Z,11.00
2022-10-02T06:22:26.771Z,11.00
2022-10-02T06:22:59.214Z,11.00
2022-10-02T06:23:30.446Z,11.00
2022-10-02T06:24:02.800Z,11.00
2022-10-02T06:24:34.916Z,11.00